KCQC

Clines Corners Airport

Clines Corner, New Mexico, USA
METAR KCQC 181453Z AUTO 31012KT 10SM CLR M03/M12 A3024 RMK AO2 SLP262 T10331117 55004
Observed Flight Rules
Jan-18 @ 14:53 UTC (43 minutes ago) Visual Flight Rules
Wind Visibility Clouds
310° at 12 knots 10 miles
  • Clear skies
Temperatures Readings
Current -3°C / 27°F
Dewpoint -12°C / 10°F
Humidity 50%
Altimeter 30.24" Hg
Pressure 1026.2 hPa
Elevation 2160
METAR KCQC 181453Z AUTO 31012KT 10SM CLR M03/M12 A3024 RMK AO2 SLP262 T10331117 55004
Observed Flight Rules
Jan-18 @ 14:53 UTC
(43 minutes ago)
VFR
Wind Visibility
310° at 12 knots 10 miles
Clouds
  • Clear skies
Temperature Dewpoint
-3°C / 27°F -12°C / 10°F
Humidity Altimeter Pressure
50% 30.24" Hg 1026.2 hPa